Time;durP1;ratioP1;P1;durP2;ratioP2;P2;SDS_P1;SDS_P2;PMS_P1;PMS_P2;Temp;Humidity;BMP_temperature;BMP_pressure;BME280_temperature;BME280_humidity;BME280_pressure;Samples;Min_cycle;Max_cycle;Signal;HPM_P1;HPM_P2
2022/01/17 00:00:14;;;;;;;19.63;10.93;;;;;;;2.62;100.00;100641.59;5091111;28;20198;-78
2022/01/17 00:02:41;;;;;;;24.83;10.90;;;;;;;2.56;100.00;100631.91;5072180;28;20194;-79
2022/01/17 00:05:09;;;;;;;19.33;9.23;;;;;;;2.56;100.00;100636.16;5083990;28;20191;-78
2022/01/17 00:07:37;;;;;;;19.13;10.87;;;;;;;2.56;100.00;100636.16;5074547;28;20225;-78
2022/01/17 00:10:05;;;;;;;17.60;11.40;;;;;;;2.33;100.00;100592.25;5090072;28;20206;-78
2022/01/17 00:12:35;;;;;;;23.70;12.13;;;;;;;2.60;100.00;100636.41;5087231;28;20206;-78
2022/01/17 00:15:10;;;;;;;23.23;11.37;;;;;;;2.63;100.00;100639.13;5089076;28;20627;-77
2022/01/17 00:17:40;;;;;;;22.57;10.87;;;;;;;2.64;100.00;100645.16;5092125;28;20198;-79
2022/01/17 00:20:10;;;;;;;19.40;10.70;;;;;;;2.65;100.00;100642.66;5079746;28;20249;-77
2022/01/17 00:22:39;;;;;;;14.57;9.40;;;;;;;2.63;100.00;100648.50;5087377;28;20221;-78
2022/01/17 00:25:06;;;;;;;18.77;10.27;;;;;;;2.64;100.00;100629.78;5081585;28;20243;-77
2022/01/17 00:27:34;;;;;;;19.53;12.33;;;;;;;2.49;100.00;100635.81;5075539;28;20198;-78
2022/01/17 00:30:02;;;;;;;25.73;13.93;;;;;;;1.95;100.00;100587.56;5071877;28;20220;-77
2022/01/17 00:32:31;;;;;;;27.37;14.33;;;;;;;2.19;100.00;100636.66;5080752;28;20213;-78
2022/01/17 00:34:58;;;;;;;24.73;14.13;;;;;;;1.97;100.00;100643.88;5092044;28;20194;-78
2022/01/17 00:37:25;;;;;;;27.80;14.20;;;;;;;1.76;100.00;100622.19;5091700;28;20202;-77
2022/01/17 00:39:52;;;;;;;30.33;15.07;;;;;;;1.75;100.00;100643.44;5090534;28;20562;-79
2022/01/17 00:42:19;;;;;;;33.30;15.90;;;;;;;1.62;100.00;100638.38;5086861;28;20218;-78
2022/01/17 00:44:47;;;;;;;25.93;14.47;;;;;;;1.43;100.00;100629.63;5076656;28;20191;-78
2022/01/17 00:47:14;;;;;;;46.83;21.17;;;;;;;1.30;100.00;100644.13;5085170;28;20197;-77
2022/01/17 00:49:43;;;;;;;33.53;17.77;;;;;;;1.30;100.00;100639.03;5091624;28;20198;-78
2022/01/17 00:52:10;;;;;;;27.80;14.63;;;;;;;1.23;100.00;100630.13;5088722;28;20190;-80
2022/01/17 00:54:37;;;;;;;27.93;15.93;;;;;;;0.74;100.00;100580.31;5091885;28;20191;-78
2022/01/17 00:57:04;;;;;;;32.50;16.67;;;;;;;0.80;100.00;100597.66;5075518;28;20688;-78
2022/01/17 00:59:31;;;;;;;26.63;15.60;;;;;;;0.89;100.00;100623.75;5087976;28;20198;-79
2022/01/17 01:01:58;;;;;;;53.40;21.07;;;;;;;0.49;100.00;100556.59;5072417;28;20226;-78
2022/01/17 01:04:25;;;;;;;50.63;23.63;;;;;;;0.47;100.00;100565.81;5071551;28;20195;-78
2022/01/17 01:06:53;;;;;;;56.97;23.13;;;;;;;0.79;100.00;100603.53;5071632;28;20230;-78
2022/01/17 01:09:20;;;;;;;50.33;22.17;;;;;;;0.77;100.00;100602.56;5088668;28;20202;-77
2022/01/17 01:11:47;;;;;;;66.50;24.27;;;;;;;0.68;100.00;100610.53;5083161;28;20202;-77
2022/01/17 01:14:14;;;;;;;52.60;21.77;;;;;;;0.65;100.00;100600.13;5081912;28;20194;-78
2022/01/17 01:16:42;;;;;;;50.33;22.60;;;;;;;0.71;100.00;100594.53;5081971;28;20198;-78
2022/01/17 01:27:47;;;;;;;37.50;16.97;;;;;;;0.73;100.00;100562.34;5081094;28;20641;-77
2022/01/17 01:30:17;;;;;;;40.10;19.40;;;;;;;0.77;100.00;100564.28;5090228;28;20271;-78
2022/01/17 01:32:48;;;;;;;38.37;19.20;;;;;;;0.79;100.00;100562.69;5085628;28;20638;-77
2022/01/17 01:35:18;;;;;;;43.57;21.57;;;;;;;0.84;100.00;100553.66;5078730;28;20665;-78
2022/01/17 01:37:47;;;;;;;42.43;20.70;;;;;;;0.95;100.00;100556.09;5078732;28;20626;-78
2022/01/17 01:40:16;;;;;;;57.60;25.07;;;;;;;0.95;100.00;100550.97;5090570;28;20190;-78
2022/01/17 01:42:43;;;;;;;50.27;22.07;;;;;;;0.33;100.00;100445.09;5091071;28;20328;-78
2022/01/17 01:45:12;;;;;;;41.97;19.97;;;;;;;0.87;100.00;100546.19;5087654;28;20186;-78
2022/01/17 01:47:40;;;;;;;29.43;16.40;;;;;;;0.74;100.00;100542.03;5078102;28;20204;-78
2022/01/17 01:50:10;;;;;;;34.93;18.17;;;;;;;0.83;100.00;100540.00;5087587;28;20273;-78
2022/01/17 01:52:37;;;;;;;41.93;19.60;;;;;;;0.63;100.00;100503.88;5088769;28;20201;-78
2022/01/17 01:55:08;;;;;;;48.10;22.93;;;;;;;0.74;100.00;100539.47;5091059;28;20203;-78
2022/01/17 01:57:34;;;;;;;44.70;21.73;;;;;;;0.56;100.00;100532.34;5073079;28;20191;-78
2022/01/17 02:00:02;;;;;;;38.47;20.97;;;;;;;0.12;100.00;100464.19;5071303;28;20623;-77
2022/01/17 02:02:29;;;;;;;39.10;20.50;;;;;;;0.19;100.00;100489.28;5086091;28;20611;-78
2022/01/17 02:04:55;;;;;;;39.93;20.63;;;;;;;0.37;100.00;100518.47;5075210;28;20204;-78
2022/01/17 02:07:22;;;;;;;59.37;23.47;;;;;;;0.36;100.00;100515.81;5090613;28;20229;-78
2022/01/17 02:09:49;;;;;;;67.50;26.20;;;;;;;0.35;100.00;100525.16;5089758;28;20194;-78
2022/01/17 02:12:21;;;;;;;47.80;21.17;;;;;;;0.39;100.00;100524.53;5073975;28;20190;-78
2022/01/17 02:14:48;;;;;;;84.90;28.17;;;;;;;0.38;100.00;100517.69;5086655;28;20210;-77
2022/01/17 02:17:16;;;;;;;72.70;26.30;;;;;;;0.36;100.00;100521.78;5091314;28;20218;-78
2022/01/17 02:19:46;;;;;;;78.07;27.10;;;;;;;-0.18;100.00;100422.38;5094753;28;20320;-77
2022/01/17 02:22:15;;;;;;;65.57;25.10;;;;;;;0.32;100.00;100514.72;5081558;28;20222;-78
2022/01/17 02:24:42;;;;;;;63.47;23.50;;;;;;;0.13;100.00;100483.81;5084951;28;20585;-78
2022/01/17 02:27:09;;;;;;;53.47;23.10;;;;;;;0.05;100.00;100469.69;5086016;28;20208;-78
2022/01/17 02:29:36;;;;;;;50.07;21.90;;;;;;;0.31;100.00;100500.25;5093180;28;20194;-78
2022/01/17 02:32:03;;;;;;;44.33;21.53;;;;;;;0.10;100.00;100478.53;5078616;28;20618;-78
2022/01/17 02:34:30;;;;;;;49.43;21.03;;;;;;;0.25;100.00;100506.63;5074044;28;20596;-78
2022/01/17 02:36:57;;;;;;;47.03;20.60;;;;;;;0.19;100.00;100512.22;5075407;28;20191;-78
2022/01/17 02:39:25;;;;;;;41.27;19.67;;;;;;;0.18;100.00;100505.34;5091300;28;20197;-78
2022/01/17 02:41:52;;;;;;;61.67;21.60;;;;;;;0.09;100.00;100499.69;5078761;28;20233;-77
2022/01/17 02:44:18;;;;;;;41.53;20.07;;;;;;;0.07;100.00;100498.72;5094579;28;20201;-78
2022/01/17 02:46:45;;;;;;;40.67;19.57;;;;;;;0.09;100.00;100501.34;5088384;28;20190;-77
2022/01/17 02:49:12;;;;;;;44.03;21.43;;;;;;;0.07;100.00;100491.06;5080978;28;20198;-78
2022/01/17 02:51:40;;;;;;;40.73;19.53;;;;;;;-0.23;100.00;100456.91;5093744;28;20186;-78
2022/01/17 02:54:07;;;;;;;44.90;20.47;;;;;;;-0.30;100.00;100449.66;5092426;28;20634;-79
2022/01/17 02:56:35;;;;;;;44.80;20.03;;;;;;;-0.01;100.00;100490.59;5085001;28;20194;-78
2022/01/17 02:59:02;;;;;;;33.10;19.10;;;;;;;-0.05;100.00;100492.84;5074273;28;20195;-78
2022/01/17 03:01:29;;;;;;;44.10;19.93;;;;;;;-0.05;100.00;100485.19;5073521;28;20730;-78
2022/01/17 03:03:57;;;;;;;46.33;21.87;;;;;;;-0.12;100.00;100470.31;5073701;28;20273;-78
2022/01/17 03:06:25;;;;;;;52.63;21.10;;;;;;;0.07;100.00;100483.44;5082104;28;20234;-79
2022/01/17 03:08:53;;;;;;;45.07;22.17;;;;;;;-0.11;100.00;100472.09;5091670;28;20673;-79
2022/01/17 03:11:22;;;;;;;57.10;23.27;;;;;;;-0.13;100.00;100473.63;5075544;28;20356;-78
2022/01/17 03:13:51;;;;;;;56.47;22.07;;;;;;;-0.14;100.00;100467.66;5078944;28;20199;-77
2022/01/17 03:16:21;;;;;;;55.67;22.07;;;;;;;-0.11;100.00;100470.38;5091053;28;20202;-77
2022/01/17 03:18:51;;;;;;;59.97;22.43;;;;;;;-0.15;100.00;100467.56;5084553;28;20645;-78
2022/01/17 03:21:20;;;;;;;53.30;24.07;;;;;;;-0.77;100.00;100367.69;5089687;28;20210;-77
2022/01/17 03:23:48;;;;;;;46.90;21.10;;;;;;;-0.20;100.00;100456.19;5084240;28;20196;-78
2022/01/17 03:26:15;;;;;;;38.77;17.20;;;;;;;-0.20;100.00;100459.63;5078596;28;20228;-77
2022/01/17 03:28:43;;;;;;;51.43;22.43;;;;;;;-0.27;100.00;100466.78;5078143;28;20191;-78
2022/01/17 03:31:11;;;;;;;49.43;20.47;;;;;;;-0.26;100.00;100463.47;5087755;28;20689;-78
2022/01/17 03:33:38;;;;;;;49.57;22.33;;;;;;;-0.30;100.00;100453.84;5091140;28;20190;-78
2022/01/17 03:36:06;;;;;;;44.93;19.90;;;;;;;-0.30;100.00;100449.66;5093282;28;20194;-78
2022/01/17 03:38:34;;;;;;;34.93;16.53;;;;;;;-0.40;100.00;100426.03;5087154;28;20630;-79
2022/01/17 03:41:02;;;;;;;50.43;23.07;;;;;;;-0.34;100.00;100450.22;5074123;28;20670;-78
2022/01/17 03:43:30;;;;;;;46.47;22.03;;;;;;;-0.29;100.00;100450.53;5087707;28;20228;-78
2022/01/17 03:45:58;;;;;;;41.43;20.90;;;;;;;-0.25;100.00;100455.03;5091915;28;20198;-78
2022/01/17 03:48:27;;;;;;;45.00;21.37;;;;;;;-0.25;100.00;100457.59;5086861;28;20226;-78
2022/01/17 03:50:58;;;;;;;43.53;19.63;;;;;;;-0.29;100.00;100464.16;5086106;28;20190;-77
2022/01/17 03:53:26;;;;;;;61.63;27.00;;;;;;;-0.41;100.00;100465.03;5077909;28;20595;-78
2022/01/17 03:55:54;;;;;;;52.97;23.47;;;;;;;-0.56;100.00;100473.44;5072937;28;20195;-78
2022/01/17 03:58:22;;;;;;;51.77;22.90;;;;;;;-0.69;100.00;100470.88;5076001;28;20624;-77
2022/01/17 04:00:50;;;;;;;50.13;23.33;;;;;;;-0.76;100.00;100471.28;5092698;28;20186;-79
2022/01/17 04:03:17;;;;;;;43.80;19.30;;;;;;;-0.80;100.00;100458.22;5092685;28;20232;-77
2022/01/17 04:05:45;;;;;;;38.47;19.50;;;;;;;-0.96;100.00;100470.75;5091744;28;20232;-77
2022/01/17 04:08:12;;;;;;;44.67;19.93;;;;;;;-0.86;100.00;100468.91;5089655;28;20202;-77
2022/01/17 04:10:40;;;;;;;45.57;19.20;;;;;;;-0.88;100.00;100465.38;5087563;28;20581;-79
2022/01/17 04:13:08;;;;;;;47.57;22.53;;;;;;;-0.89;100.00;100466.13;5101760;28;20258;-78
2022/01/17 04:15:36;;;;;;;45.03;20.13;;;;;;;-0.84;100.00;100462.25;5098269;28;20653;-78
2022/01/17 04:18:04;;;;;;;31.33;16.93;;;;;;;-0.86;100.00;100468.91;5097900;28;20204;-78
2022/01/17 04:20:32;;;;;;;39.40;17.77;;;;;;;-0.92;100.00;100458.31;5101038;28;20489;-78
2022/01/17 04:23:02;;;;;;;34.03;16.47;;;;;;;-0.89;100.00;100448.31;5100804;28;20731;-78
2022/01/17 04:25:31;;;;;;;30.57;15.17;;;;;;;-0.87;100.00;100445.88;5097988;28;20258;-79
2022/01/17 04:27:59;;;;;;;33.63;15.53;;;;;;;-0.88;100.00;100446.66;5101510;28;20201;-78
2022/01/17 04:30:27;;;;;;;29.77;16.47;;;;;;;-0.94;100.00;100439.53;5098343;28;20574;-78
2022/01/17 04:32:54;;;;;;;35.93;17.17;;;;;;;-0.95;100.00;100430.13;5097650;28;20193;-79
2022/01/17 04:35:23;;;;;;;40.43;17.40;;;;;;;-0.93;100.00;100436.22;5097923;28;20186;-80
2022/01/17 04:37:53;;;;;;;41.17;17.63;;;;;;;-0.96;100.00;100425.78;5102655;28;20216;-77
2022/01/17 04:40:21;;;;;;;34.37;15.77;;;;;;;-1.00;100.00;100429.81;5095789;28;20183;-78
2022/01/17 04:42:50;;;;;;;28.57;13.60;;;;;;;-1.40;100.00;100374.56;5081391;28;20576;-77
2022/01/17 04:45:19;;;;;;;22.63;12.60;;;;;;;-1.69;100.00;100359.91;5089974;28;20195;-79
2022/01/17 04:47:47;;;;;;;23.37;12.30;;;;;;;-1.17;100.00;100432.00;5086515;28;20195;-79
2022/01/17 04:50:17;;;;;;;26.93;12.67;;;;;;;-1.07;100.00;100425.09;5071762;28;20194;-78
2022/01/17 04:52:44;;;;;;;62.67;26.37;;;;;;;-1.00;100.00;100418.78;5086204;28;20198;-82
2022/01/17 04:55:14;;;;;;;55.30;24.00;;;;;;;-0.87;100.00;100420.44;5072218;28;20548;-78
2022/01/17 04:57:42;;;;;;;55.80;23.90;;;;;;;-0.83;100.00;100430.03;5090357;28;20636;-77
2022/01/17 05:00:12;;;;;;;49.00;22.10;;;;;;;-1.05;100.00;100392.13;5071623;28;20619;-78
2022/01/17 05:02:39;;;;;;;34.40;15.97;;;;;;;-1.32;100.00;100326.75;5071864;28;20735;-77
2022/01/17 05:05:07;;;;;;;28.57;13.53;;;;;;;-0.69;100.00;100394.53;5072441;28;20197;-78
2022/01/17 05:07:34;;;;;;;18.27;8.60;;;;;;;0.15;100.00;100418.50;5073320;28;20238;-78
2022/01/17 05:10:02;;;;;;;10.23;5.23;;;;;;;1.22;100.00;100411.28;5071915;28;20206;-78
2022/01/17 05:12:29;;;;;;;8.23;6.10;;;;;;;1.74;100.00;100419.31;5072280;28;20202;-78
2022/01/17 05:14:58;;;;;;;10.77;7.03;;;;;;;1.85;100.00;100383.31;5071777;28;20233;-78
2022/01/17 05:17:43;;;;;;;10.63;6.17;;;;;;;2.30;100.00;100397.66;5071684;28;20212;-78
2022/01/17 05:20:11;;;;;;;6.00;3.97;;;;;;;2.59;100.00;100414.53;5071316;28;20214;-79
2022/01/17 05:22:41;;;;;;;3.80;3.17;;;;;;;2.86;100.00;100397.13;5071389;28;20223;-79
2022/01/17 05:25:12;;;;;;;7.80;5.80;;;;;;;2.94;100.00;100403.53;5078412;28;20205;-79
2022/01/17 05:27:39;;;;;;;4.90;3.47;;;;;;;2.74;100.00;100368.38;5087781;28;20222;-78
2022/01/17 05:30:12;;;;;;;8.53;3.17;;;;;;;3.07;97.83;100397.34;5091579;28;20202;-79
2022/01/17 05:32:40;;;;;;;13.07;5.03;;;;;;;3.07;95.60;100413.56;5089338;28;20229;-79
2022/01/17 05:35:09;;;;;;;7.43;3.33;;;;;;;2.92;96.09;100387.22;5094537;28;20193;-78
2022/01/17 05:37:36;;;;;;;5.20;3.63;;;;;;;2.93;94.60;100387.28;5091496;28;20198;-78
2022/01/17 05:40:03;;;;;;;7.30;4.37;;;;;;;3.22;89.69;100378.47;5080856;28;20210;-78
2022/01/17 05:42:30;;;;;;;7.43;4.17;;;;;;;3.61;86.84;100415.38;5093872;28;20218;-77
2022/01/17 05:44:57;;;;;;;4.47;3.57;;;;;;;3.44;83.92;100375.25;5093187;28;20198;-79
2022/01/17 05:47:25;;;;;;;8.77;4.03;;;;;;;3.51;84.48;100392.69;5091929;28;20261;-79
2022/01/17 05:49:52;;;;;;;3.97;3.33;;;;;;;3.14;88.23;100400.25;5102531;28;20220;-78
2022/01/17 05:52:19;;;;;;;9.57;4.87;;;;;;;3.02;91.91;100417.59;5103972;28;20193;-79
2022/01/17 05:54:46;;;;;;;11.13;5.43;;;;;;;3.16;86.49;100369.59;5094728;28;20183;-78
2022/01/17 05:57:13;;;;;;;5.10;4.20;;;;;;;3.59;77.81;100355.47;5078992;28;20194;-80
2022/01/17 05:59:40;;;;;;;6.27;3.63;;;;;;;3.79;75.25;100364.06;5095295;28;20697;-77
2022/01/17 06:02:07;;;;;;;10.80;5.10;;;;;;;4.07;73.95;100402.16;5100539;28;20671;-79
2022/01/17 06:04:36;;;;;;;9.70;4.73;;;;;;;4.13;72.72;100393.03;5103777;28;20201;-80
2022/01/17 06:07:04;;;;;;;6.33;4.67;;;;;;;4.02;72.98;100414.75;5101034;28;20229;-79
2022/01/17 06:09:31;;;;;;;6.00;4.17;;;;;;;3.89;75.57;100412.41;5098268;28;20585;-78
2022/01/17 06:11:58;;;;;;;6.80;4.33;;;;;;;3.84;75.30;100408.78;5101888;28;20189;-78
2022/01/17 06:14:25;;;;;;;5.30;3.90;;;;;;;3.86;75.63;100412.28;5084844;28;20209;-78
2022/01/17 06:16:52;;;;;;;7.93;6.07;;;;;;;3.74;75.61;100406.59;5077558;28;20195;-78
2022/01/17 06:19:19;;;;;;;9.80;5.70;;;;;;;3.73;75.79;100394.56;5090456;28;20202;-76
2022/01/17 06:21:47;;;;;;;10.33;5.97;;;;;;;2.30;77.59;100159.75;5079053;28;20620;-79
2022/01/17 06:24:15;;;;;;;9.03;4.70;;;;;;;3.51;77.66;100410.63;5075200;28;20230;-78
2022/01/17 06:26:43;;;;;;;7.97;5.37;;;;;;;3.68;82.64;100431.91;5088041;28;20190;-79
2022/01/17 06:29:11;;;;;;;6.47;4.33;;;;;;;3.52;76.64;100409.81;5094250;28;20187;-80
2022/01/17 06:31:39;;;;;;;9.40;4.53;;;;;;;3.30;73.56;100361.78;5085145;28;20205;-78
2022/01/17 06:34:06;;;;;;;5.57;4.60;;;;;;;3.44;72.48;100382.94;5074431;28;20209;-80
2022/01/17 06:36:33;;;;;;;5.17;3.83;;;;;;;3.91;70.74;100437.34;5074052;28;20198;-78
2022/01/17 06:39:02;;;;;;;6.97;4.40;;;;;;;4.03;70.00;100431.91;5094025;28;20210;-80
2022/01/17 06:41:29;;;;;;;6.73;5.00;;;;;;;4.00;69.79;100431.75;5092692;28;20639;-82
2022/01/17 06:43:56;;;;;;;7.67;4.57;;;;;;;4.02;69.66;100431.84;5088084;28;20603;-81
2022/01/17 06:46:24;;;;;;;11.13;4.97;;;;;;;3.62;68.55;100339.34;5085909;28;20194;-79
2022/01/17 06:48:51;;;;;;;6.67;4.20;;;;;;;4.14;71.39;100430.69;5091838;28;20692;-78
2022/01/17 06:51:17;;;;;;;7.47;5.23;;;;;;;4.10;68.90;100428.84;5092864;28;20193;-77
2022/01/17 06:53:45;;;;;;;7.27;4.47;;;;;;;4.13;69.59;100423.84;5094412;28;20190;-80
2022/01/17 06:56:13;;;;;;;8.60;4.77;;;;;;;4.06;69.84;100415.78;5094517;28;20201;-76
2022/01/17 06:58:42;;;;;;;9.37;4.10;;;;;;;4.06;71.72;100420.91;5093378;28;20660;-78
2022/01/17 07:01:09;;;;;;;5.00;4.50;;;;;;;3.99;71.90;100423.19;5093683;28;20281;-77
2022/01/17 07:03:36;;;;;;;5.97;4.67;;;;;;;3.92;73.65;100426.25;5094123;28;20218;-79
2022/01/17 07:06:03;;;;;;;4.10;3.57;;;;;;;3.97;75.54;100431.63;5094133;28;20237;-76
2022/01/17 07:08:30;;;;;;;6.90;4.17;;;;;;;3.93;78.04;100420.34;5087529;28;20194;-76
2022/01/17 07:10:57;;;;;;;9.43;4.93;;;;;;;3.87;80.49;100420.06;5092789;28;20198;-78
2022/01/17 07:13:25;;;;;;;6.53;4.40;;;;;;;3.58;83.93;100366.53;5093162;28;20194;-77
2022/01/17 07:15:52;;;;;;;9.00;4.50;;;;;;;3.91;87.17;100415.94;5091717;28;20198;-77
2022/01/17 07:18:18;;;;;;;8.73;5.63;;;;;;;3.79;90.05;100384.59;5092827;28;20702;-77
2022/01/17 07:20:45;;;;;;;9.63;5.60;;;;;;;3.82;91.84;100384.72;5092702;28;20217;-77
2022/01/17 07:23:12;;;;;;;10.37;7.30;;;;;;;3.80;97.69;100425.72;5092693;28;20229;-78
2022/01/17 07:25:39;;;;;;;9.07;6.00;;;;;;;3.83;95.27;100422.41;5092959;28;20194;-78
2022/01/17 07:28:07;;;;;;;13.17;6.93;;;;;;;3.54;95.04;100361.19;5092673;28;20256;-77
2022/01/17 07:30:36;;;;;;;11.13;6.10;;;;;;;3.79;95.88;100411.13;5092847;28;20226;-77
2022/01/17 07:33:05;;;;;;;13.80;6.93;;;;;;;3.79;94.11;100411.13;5092458;28;20203;-79
2022/01/17 07:35:32;;;;;;;14.33;8.73;;;;;;;3.87;95.56;100409.81;5077481;28;20208;-76
2022/01/17 07:37:59;;;;;;;8.10;4.87;;;;;;;3.84;93.21;100395.97;5092422;28;20264;-75
2022/01/17 07:40:26;;;;;;;5.97;3.97;;;;;;;3.85;93.26;100372.06;5093044;28;20206;-77
2022/01/17 07:42:53;;;;;;;10.47;5.93;;;;;;;3.78;94.43;100378.56;5093356;28;20197;-75
2022/01/17 07:45:20;;;;;;;9.07;6.27;;;;;;;3.82;95.02;100372.78;5093062;28;20198;-75
2022/01/17 07:48:09;;;;;;;9.83;5.77;;;;;;;3.84;96.90;100367.75;5092336;28;20198;-75
2022/01/17 07:50:36;;;;;;;9.23;5.90;;;;;;;3.82;97.96;100416.38;5093012;28;20689;-75
2022/01/17 07:53:03;;;;;;;13.17;7.60;;;;;;;4.01;99.71;100456.59;5088461;28;20286;-77
2022/01/17 07:55:30;;;;;;;6.13;4.20;;;;;;;3.95;99.40;100448.63;5084123;28;20589;-80
2022/01/17 07:57:57;;;;;;;10.50;7.03;;;;;;;3.97;100.00;100452.13;5080109;28;20209;-76
2022/01/17 08:00:25;;;;;;;10.73;7.67;;;;;;;3.97;100.00;100439.31;5093004;28;20209;-76
2022/01/17 08:02:56;;;;;;;25.47;5.87;;;;;;;4.07;100.00;100413.28;5093382;28;20190;-76
2022/01/17 08:05:24;;;;;;;12.20;6.90;;;;;;;4.08;100.00;100383.38;5092891;28;20194;-80
2022/01/17 08:07:51;;;;;;;14.37;8.97;;;;;;;4.11;100.00;100366.44;5093008;28;20573;-74
2022/01/17 08:10:18;;;;;;;5.10;4.47;;;;;;;4.12;100.00;100350.22;5078977;28;20645;-77
2022/01/17 08:12:47;;;;;;;8.77;4.90;;;;;;;4.17;100.00;100358.16;5091909;28;20264;-74
2022/01/17 08:15:14;;;;;;;10.50;6.63;;;;;;;4.21;100.00;100371.16;5085200;28;20225;-76
2022/01/17 08:17:42;;;;;;;14.30;7.43;;;;;;;4.20;100.00;100397.66;5071630;28;20214;-74
2022/01/17 08:20:11;;;;;;;11.63;8.27;;;;;;;4.36;100.00;100447.97;5091763;28;20218;-75
2022/01/17 08:22:38;;;;;;;14.30;6.50;;;;;;;4.44;100.00;100478.31;5091644;28;20668;-75
2022/01/17 08:25:05;;;;;;;8.17;6.17;;;;;;;4.53;100.00;100484.69;5091269;28;20236;-75
2022/01/17 08:27:32;;;;;;;11.03;6.37;;;;;;;4.59;100.00;100495.22;5090839;28;20648;-74
2022/01/17 08:30:00;;;;;;;10.40;6.80;;;;;;;4.56;100.00;100461.72;5085233;28;20636;-75
2022/01/17 08:32:28;;;;;;;12.57;6.80;;;;;;;4.64;100.00;100465.50;5091634;28;20194;-75
2022/01/17 08:34:56;;;;;;;13.50;7.27;;;;;;;4.74;100.00;100472.81;5091396;28;20687;-75
2022/01/17 08:37:25;;;;;;;11.10;6.00;;;;;;;4.79;100.00;100425.06;5089494;28;20650;-75
2022/01/17 08:39:52;;;;;;;10.93;6.03;;;;;;;4.79;100.00;100425.06;5091688;28;20193;-77
2022/01/17 08:42:19;;;;;;;12.73;8.00;;;;;;;4.80;100.00;100411.41;5091410;28;20665;-75
2022/01/17 08:44:49;;;;;;;14.50;8.67;;;;;;;4.89;100.00;100375.81;5088520;28;20221;-76
2022/01/17 08:47:16;;;;;;;18.63;9.37;;;;;;;4.93;100.00;100393.13;5090767;28;20209;-76
2022/01/17 08:49:43;;;;;;;15.93;9.10;;;;;;;4.96;100.00;100401.84;5091226;28;20197;-76
2022/01/17 08:52:10;;;;;;;10.83;6.30;;;;;;;4.99;100.00;100413.97;5091621;28;20202;-75
2022/01/17 08:54:38;;;;;;;12.53;8.23;;;;;;;4.97;100.00;100377.91;5091615;28;20236;-75
2022/01/17 08:57:05;;;;;;;15.73;8.53;;;;;;;5.09;100.00;100364.72;5090938;28;20251;-76
2022/01/17 08:59:32;;;;;;;12.37;8.43;;;;;;;5.10;100.00;100378.44;5091636;28;20190;-77
2022/01/17 09:01:59;;;;;;;15.70;9.17;;;;;;;5.18;100.00;100374.47;5091123;28;20186;-76
2022/01/17 09:04:26;;;;;;;18.90;7.90;;;;;;;5.28;100.00;100372.34;5091338;28;20225;-76
2022/01/17 09:06:53;;;;;;;15.87;7.27;;;;;;;5.33;100.00;100367.38;5090977;28;20296;-77
2022/01/17 09:09:20;;;;;;;12.20;7.33;;;;;;;5.42;100.00;100365.19;5091218;28;20619;-78
2022/01/17 09:11:48;;;;;;;10.87;7.03;;;;;;;5.42;100.00;100360.91;5089496;28;20198;-76
2022/01/17 09:14:15;;;;;;;10.83;6.60;;;;;;;5.29;100.00;100348.38;5078928;28;20551;-76
2022/01/17 09:16:42;;;;;;;18.97;8.20;;;;;;;5.46;100.00;100362.78;5090766;28;20198;-75
2022/01/17 09:19:08;;;;;;;10.90;7.07;;;;;;;5.54;100.00;100359.63;5088193;28;20205;-76
2022/01/17 09:21:35;;;;;;;29.67;13.70;;;;;;;5.58;100.00;100343.50;5091391;28;20213;-75
2022/01/17 09:24:02;;;;;;;28.30;14.73;;;;;;;5.62;100.00;100379.72;5092064;28;20708;-75
2022/01/17 09:26:29;;;;;;;18.07;9.97;;;;;;;5.68;100.00;100363.63;5095862;28;20198;-74
2022/01/17 09:28:57;;;;;;;8.97;6.70;;;;;;;5.74;100.00;100377.59;5095945;28;20197;-75
2022/01/17 09:31:24;;;;;;;11.97;7.10;;;;;;;5.77;100.00;100376.84;5095257;28;20198;-75
2022/01/17 09:33:51;;;;;;;8.00;6.60;;;;;;;5.77;100.00;100375.16;5095611;28;20213;-76
2022/01/17 09:36:17;;;;;;;15.03;8.87;;;;;;;5.81;100.00;100405.34;5095651;28;20632;-75
2022/01/17 09:38:44;;;;;;;12.10;8.53;;;;;;;5.80;100.00;100366.69;5095585;28;20248;-75
2022/01/17 09:41:12;;;;;;;10.57;6.23;;;;;;;6.01;100.00;100393.25;5095495;28;20191;-74
2022/01/17 09:43:39;;;;;;;13.30;8.07;;;;;;;6.00;100.00;100399.22;5095806;28;20222;-71
2022/01/17 09:46:09;;;;;;;10.40;7.27;;;;;;;6.12;100.00;100391.09;5091783;28;20203;-73
2022/01/17 09:48:38;;;;;;;13.23;6.77;;;;;;;5.99;100.00;100398.34;5091526;28;20256;-74
2022/01/17 09:51:17;;;;;;;10.67;7.33;;;;;;;6.05;100.00;100397.72;5094549;28;20190;-73
2022/01/17 09:53:51;;;;;;;12.87;6.43;;;;;;;6.02;100.00;100384.72;5095099;28;20208;-77
2022/01/17 09:56:21;;;;;;;7.23;5.37;;;;;;;6.18;100.00;100376.75;5095256;28;20198;-77
2022/01/17 09:58:48;;;;;;;9.63;5.47;;;;;;;6.15;100.00;100389.50;5094719;28;20695;-74
2022/01/17 10:01:16;;;;;;;7.23;5.00;;;;;;;6.21;100.00;100394.88;5095059;28;20194;-75
2022/01/17 10:03:43;;;;;;;8.30;6.00;;;;;;;5.82;100.00;100336.72;5094879;28;20727;-74
2022/01/17 10:06:10;;;;;;;11.27;5.80;;;;;;;6.19;100.00;100370.78;5094502;28;20233;-75
2022/01/17 10:08:37;;;;;;;11.17;7.07;;;;;;;6.29;100.00;100360.00;5095039;28;20251;-74
2022/01/17 10:11:13;;;;;;;10.87;6.77;;;;;;;6.40;100.00;100371.56;5094596;28;20633;-75
2022/01/17 10:13:45;;;;;;;7.50;6.30;;;;;;;6.36;100.00;100356.81;5095059;28;20186;-75
2022/01/17 10:16:14;;;;;;;8.33;5.40;;;;;;;6.47;100.00;100341.75;5093946;28;20208;-75
2022/01/17 10:18:49;;;;;;;12.17;6.53;;;;;;;6.51;100.00;100353.03;5094417;28;20201;-75
2022/01/17 10:21:28;;;;;;;11.30;7.60;;;;;;;6.48;100.00;100352.13;5093688;28;20439;-75
2022/01/17 10:24:17;;;;;;;10.13;6.60;;;;;;;6.42;100.00;100328.72;5094408;28;20918;-76
2022/01/17 10:27:07;;;;;;;14.87;6.90;;;;;;;6.29;100.00;100311.09;5094388;28;20668;-75
2022/01/17 10:29:57;;;;;;;21.73;8.00;;;;;;;6.43;100.00;100330.47;5094543;28;20308;-76
2022/01/17 10:35:19;;;;;;;14.93;7.37;;;;;;;6.24;100.00;100301.47;5094173;28;20198;-77
2022/01/17 10:38:02;;;;;;;7.13;5.00;;;;;;;6.53;99.96;100335.97;5101494;28;20194;-77
2022/01/17 10:40:30;;;;;;;11.30;6.27;;;;;;;6.63;100.00;100349.22;5114061;28;20209;-76
2022/01/17 10:42:59;;;;;;;16.50;6.80;;;;;;;6.76;99.11;100345.34;5112604;28;20556;-76
2022/01/17 10:45:33;;;;;;;9.90;5.90;;;;;;;7.02;99.37;100341.97;5112501;28;20743;-76
2022/01/17 10:48:01;;;;;;;10.23;7.00;;;;;;;7.04;99.60;100331.69;5102203;28;20213;-77
2022/01/17 10:50:32;;;;;;;6.60;5.37;;;;;;;7.01;97.55;100337.63;5073933;28;20202;-77
2022/01/17 10:53:01;;;;;;;10.90;5.80;;;;;;;6.81;97.03;100341.25;5073753;28;20199;-78
2022/01/17 10:55:31;;;;;;;11.73;5.03;;;;;;;6.76;98.50;100328.19;5073754;28;20234;-77
2022/01/17 10:58:02;;;;;;;17.53;6.60;;;;;;;6.55;98.53;100305.97;5073621;28;20679;-78
2022/01/17 11:00:30;;;;;;;13.47;6.03;;;;;;;6.47;99.00;100316.00;5073711;28;20214;-76
2022/01/17 11:02:59;;;;;;;15.00;5.90;;;;;;;6.56;100.00;100318.03;5073584;28;20197;-78
2022/01/17 11:05:28;;;;;;;9.80;6.20;;;;;;;6.61;100.00;100309.63;5073062;28;20649;-76
2022/01/17 11:07:58;;;;;;;12.20;6.57;;;;;;;6.56;100.00;100315.44;5073874;28;20218;-75
2022/01/17 11:10:28;;;;;;;14.40;7.73;;;;;;;6.55;99.89;100313.69;5088272;28;20194;-77
2022/01/17 11:12:57;;;;;;;10.30;6.60;;;;;;;6.62;100.00;100305.34;5093181;28;20194;-78
2022/01/17 11:15:25;;;;;;;11.20;6.13;;;;;;;6.64;100.00;100314.00;5092891;28;20221;-77
2022/01/17 11:17:55;;;;;;;11.27;6.87;;;;;;;6.61;100.00;100306.16;5093103;28;20202;-76
2022/01/17 11:20:25;;;;;;;7.60;5.23;;;;;;;6.75;100.00;100299.78;5093007;28;20271;-76
2022/01/17 11:22:55;;;;;;;11.93;6.47;;;;;;;6.68;100.00;100284.94;5093027;28;20194;-75
2022/01/17 11:25:27;;;;;;;9.33;6.40;;;;;;;6.27;100.00;100214.91;5092424;28;20228;-79
2022/01/17 11:27:55;;;;;;;9.80;5.50;;;;;;;6.64;100.00;100275.34;5092987;28;20229;-75
2022/01/17 11:30:22;;;;;;;8.77;5.57;;;;;;;6.61;100.00;100262.38;5092599;28;20194;-76
2022/01/17 11:32:50;;;;;;;11.80;6.57;;;;;;;6.66;100.00;100277.19;5092533;28;20259;-78